createdAt,value
2022-09-23T00:01:24.816Z,99.90
2022-09-23T00:03:52.676Z,99.90
2022-09-23T00:06:22.584Z,99.90
2022-09-23T00:08:51.343Z,99.90
2022-09-23T00:11:21.680Z,99.90
2022-09-23T00:13:52.725Z,99.90
2022-09-23T00:16:23.759Z,99.90
2022-09-23T00:18:51.767Z,99.90
2022-09-23T00:21:20.665Z,99.90
2022-09-23T00:23:48.981Z,99.90
2022-09-23T00:26:18.922Z,99.90
2022-09-23T00:28:47.237Z,99.90
2022-09-23T00:31:18.194Z,99.90
2022-09-23T00:33:47.587Z,99.90
2022-09-23T00:36:16.983Z,99.90
2022-09-23T00:38:45.781Z,99.90
2022-09-23T00:41:16.014Z,99.90
2022-09-23T00:43:46.231Z,99.90
2022-09-23T00:46:18.583Z,99.90
2022-09-23T00:48:53.171Z,99.90
2022-09-23T00:51:23.587Z,99.90
2022-09-23T00:53:53.397Z,99.90
2022-09-23T00:56:23.867Z,99.90
2022-09-23T00:58:52.588Z,99.90
2022-09-23T01:01:21.712Z,99.90
2022-09-23T01:03:52.306Z,99.90
2022-09-23T01:06:20.425Z,99.90
2022-09-23T01:08:49.169Z,99.90
2022-09-23T01:11:31.290Z,99.90
2022-09-23T01:14:08.398Z,99.90
2022-09-23T01:16:42.315Z,99.90
2022-09-23T01:19:33.309Z,99.90
2022-09-23T01:22:05.787Z,99.90
2022-09-23T01:24:51.759Z,99.90
2022-09-23T01:27:41.103Z,99.90
2022-09-23T01:30:16.612Z,99.90
2022-09-23T01:33:11.826Z,99.90
2022-09-23T01:36:03.883Z,99.90
2022-09-23T01:38:40.648Z,99.90
2022-09-23T01:41:18.341Z,99.90
2022-09-23T01:43:54.708Z,99.90
2022-09-23T01:46:28.830Z,99.90
2022-09-23T01:49:03.873Z,99.90
2022-09-23T01:51:37.222Z,99.90
2022-09-23T01:54:08.215Z,99.90
2022-09-23T01:56:41.181Z,99.90
2022-09-23T01:59:15.312Z,99.90
2022-09-23T02:01:48.704Z,99.90
2022-09-23T02:04:23.319Z,99.90
2022-09-23T02:06:57.997Z,99.90
2022-09-23T02:09:32.358Z,99.90
2022-09-23T02:12:05.714Z,99.90
2022-09-23T02:14:39.979Z,99.90
2022-09-23T02:17:12.992Z,99.90
2022-09-23T02:19:46.404Z,99.90
2022-09-23T02:22:16.117Z,99.90
2022-09-23T02:24:45.060Z,99.90
2022-09-23T02:27:21.132Z,99.90
2022-09-23T02:29:56.658Z,99.90
2022-09-23T02:32:31.616Z,99.90
2022-09-23T02:35:10.504Z,99.90
2022-09-23T02:37:47.542Z,99.90
2022-09-23T02:40:23.463Z,99.90
2022-09-23T02:42:58.960Z,99.90
2022-09-23T02:45:27.266Z,99.90
2022-09-23T02:48:00.614Z,99.90
2022-09-23T02:50:30.878Z,99.90
2022-09-23T02:53:00.854Z,99.90
2022-09-23T02:55:31.275Z,99.90
2022-09-23T02:58:01.410Z,99.90
2022-09-23T03:00:40.426Z,99.90
2022-09-23T03:03:23.564Z,99.90
2022-09-23T03:05:57.338Z,99.90
2022-09-23T03:08:37.208Z,99.90
2022-09-23T03:11:08.560Z,99.90
2022-09-23T03:13:48.585Z,99.90
2022-09-23T03:16:27.758Z,99.90
2022-09-23T03:19:00.303Z,99.90
2022-09-23T03:21:35.265Z,99.90
2022-09-23T03:24:08.268Z,99.90
2022-09-23T03:26:39.643Z,99.90
2022-09-23T03:29:11.427Z,99.90
2022-09-23T03:31:42.520Z,99.90
2022-09-23T03:34:16.584Z,99.90
2022-09-23T03:36:51.935Z,99.90
2022-09-23T03:39:29.244Z,99.90
2022-09-23T03:41:59.999Z,99.90
2022-09-23T03:44:29.024Z,99.90
2022-09-23T03:47:00.128Z,99.90
2022-09-23T03:49:32.860Z,99.90
2022-09-23T03:52:03.184Z,99.90
2022-09-23T03:54:31.267Z,99.90
2022-09-23T03:57:01.174Z,99.90
2022-09-23T03:59:30.290Z,99.90
2022-09-23T04:01:59.497Z,99.90
2022-09-23T04:04:28.249Z,99.90
2022-09-23T04:06:56.366Z,99.90
2022-09-23T04:09:26.976Z,99.90
2022-09-23T04:11:55.121Z,99.90
2022-09-23T04:14:23.660Z,99.90
2022-09-23T04:16:51.971Z,99.90
2022-09-23T04:19:19.906Z,99.90
2022-09-23T04:21:48.320Z,99.90
2022-09-23T04:24:17.838Z,99.90
2022-09-23T04:26:47.018Z,99.90
2022-09-23T04:29:14.854Z,99.90
2022-09-23T04:31:42.704Z,99.90
2022-09-23T04:34:10.714Z,99.90
2022-09-23T04:36:38.554Z,99.90
2022-09-23T04:39:06.633Z,99.90
2022-09-23T04:41:35.129Z,99.90
2022-09-23T04:44:05.047Z,99.90
2022-09-23T04:46:32.985Z,99.90
2022-09-23T04:49:00.913Z,99.90
2022-09-23T04:51:29.476Z,99.90
2022-09-23T04:53:57.647Z,99.90
2022-09-23T04:56:27.262Z,99.90
2022-09-23T04:58:57.180Z,99.90
2022-09-23T05:01:28.451Z,99.90
2022-09-23T05:03:58.219Z,99.90
2022-09-23T05:06:26.513Z,99.90
2022-09-23T05:08:56.092Z,99.90
2022-09-23T05:11:24.325Z,99.90
2022-09-23T05:13:53.949Z,99.90
2022-09-23T05:16:23.645Z,99.90
2022-09-23T05:18:53.909Z,99.90
2022-09-23T05:21:24.473Z,99.90
2022-09-23T05:23:55.140Z,99.90
2022-09-23T05:26:25.245Z,99.90
2022-09-23T05:28:53.793Z,99.90
2022-09-23T05:31:24.118Z,99.90
2022-09-23T05:33:55.761Z,99.90
2022-09-23T05:36:24.387Z,99.90
2022-09-23T05:38:52.618Z,99.90
2022-09-23T05:41:22.841Z,99.90
2022-09-23T05:43:51.489Z,99.90
2022-09-23T05:46:21.102Z,99.90
2022-09-23T05:48:49.041Z,99.90
2022-09-23T05:51:20.116Z,99.90
2022-09-23T05:53:49.714Z,99.90
2022-09-23T05:56:19.597Z,99.90
2022-09-23T05:58:49.298Z,99.90
2022-09-23T06:01:21.992Z,99.90
2022-09-23T06:03:50.502Z,99.90
2022-09-23T06:06:22.548Z,99.90
2022-09-23T06:08:50.376Z,99.90
2022-09-23T06:11:19.403Z,99.90
2022-09-23T06:13:47.191Z,99.90
2022-09-23T06:16:16.780Z,99.90
2022-09-23T06:18:46.264Z,99.90
2022-09-23T06:21:15.924Z,99.90
2022-09-23T06:23:46.244Z,99.90
2022-09-23T06:26:15.622Z,99.90
2022-09-23T06:28:44.892Z,99.90
2022-09-23T06:31:15.275Z,99.90
2022-09-23T06:33:44.828Z,99.90
2022-09-23T06:36:23.456Z,99.90
2022-09-23T06:38:53.774Z,99.90
2022-09-23T06:41:21.628Z,99.90
2022-09-23T06:43:49.504Z,99.90
2022-09-23T06:46:17.948Z,99.90
2022-09-23T06:48:46.443Z,99.90
2022-09-23T06:51:19.186Z,99.90
2022-09-23T06:53:48.481Z,99.90
2022-09-23T06:56:19.872Z,99.90
2022-09-23T06:58:48.056Z,99.90
2022-09-23T07:01:19.057Z,99.90
2022-09-23T07:03:48.436Z,99.90
2022-09-23T07:06:17.092Z,99.90
2022-09-23T07:08:46.992Z,99.90
2022-09-23T07:11:19.327Z,99.90
2022-09-23T07:13:47.198Z,99.90
2022-09-23T07:16:15.326Z,99.00
2022-09-23T07:18:43.199Z,98.10
2022-09-23T07:21:14.941Z,96.70
2022-09-23T07:23:43.149Z,95.50
2022-09-23T07:26:11.554Z,93.10
2022-09-23T07:28:40.798Z,89.70
2022-09-23T07:31:15.386Z,90.10
2022-09-23T07:33:44.609Z,87.80
2022-09-23T07:36:14.878Z,85.30
2022-09-23T07:38:45.521Z,83.70
2022-09-23T07:41:15.712Z,82.60
2022-09-23T07:43:45.457Z,80.70
2022-09-23T07:46:16.810Z,79.20
2022-09-23T07:48:45.654Z,80.60
2022-09-23T07:51:22.545Z,77.50
2022-09-23T07:53:51.936Z,76.70
2022-09-23T07:56:21.953Z,76.60
2022-09-23T07:59:00.082Z,76.00
2022-09-23T08:01:29.619Z,77.50
2022-09-23T08:03:57.959Z,77.10
2022-09-23T08:06:25.890Z,77.50
2022-09-23T08:08:54.146Z,76.80
2022-09-23T08:11:21.984Z,73.30
2022-09-23T08:13:51.334Z,71.20
2022-09-23T08:16:19.220Z,67.40
2022-09-23T08:18:47.694Z,68.10
2022-09-23T08:21:20.357Z,63.70
2022-09-23T08:23:48.645Z,62.10
2022-09-23T08:26:21.581Z,60.60
2022-09-23T08:28:54.606Z,58.30
2022-09-23T08:31:23.903Z,56.40
2022-09-23T08:33:56.040Z,55.00
2022-09-23T08:36:24.381Z,54.00
2022-09-23T08:38:52.586Z,51.50
2022-09-23T08:41:28.274Z,52.80
2022-09-23T08:44:02.327Z,51.60
2022-09-23T08:46:36.056Z,51.10
2022-09-23T08:49:06.525Z,49.60
2022-09-23T08:51:40.821Z,48.90
2022-09-23T08:54:11.096Z,50.40
2022-09-23T08:56:39.727Z,50.90
2022-09-23T08:59:14.737Z,50.50
2022-09-23T09:01:45.734Z,51.60
2022-09-23T09:04:18.581Z,51.90
2022-09-23T09:06:54.089Z,51.60
2022-09-23T09:09:29.517Z,52.40
2022-09-23T09:12:04.040Z,52.70
2022-09-23T09:14:38.861Z,53.70
2022-09-23T09:17:10.486Z,55.00
2022-09-23T09:19:53.692Z,54.60
2022-09-23T09:22:26.015Z,54.30
2022-09-23T09:24:59.853Z,53.90
2022-09-23T09:27:27.714Z,52.60
2022-09-23T09:29:59.057Z,51.10
2022-09-23T09:32:37.810Z,50.20
2022-09-23T09:35:16.905Z,49.40
2022-09-23T09:37:48.386Z,50.10
2022-09-23T09:40:17.925Z,49.90
2022-09-23T09:42:48.628Z,50.00
2022-09-23T09:45:26.269Z,50.20
2022-09-23T09:48:03.603Z,49.90
2022-09-23T09:50:47.213Z,50.20
2022-09-23T09:53:23.987Z,49.20
2022-09-23T09:56:05.569Z,50.40
2022-09-23T09:58:41.041Z,51.50
2022-09-23T10:01:18.316Z,50.60
2022-09-23T10:03:46.783Z,50.60
2022-09-23T10:06:20.841Z,49.60
2022-09-23T10:09:07.629Z,48.70
2022-09-23T10:11:36.232Z,49.00
2022-09-23T10:14:13.386Z,48.60
2022-09-23T10:16:42.627Z,50.80
2022-09-23T10:19:19.340Z,52.00
2022-09-23T10:21:52.643Z,51.90
2022-09-23T10:24:26.837Z,51.50
2022-09-23T10:26:58.606Z,52.00
2022-09-23T10:29:32.179Z,51.00
2022-09-23T10:32:30.122Z,49.20
2022-09-23T10:35:04.676Z,50.50
2022-09-23T10:37:36.901Z,51.60
2022-09-23T10:40:36.147Z,51.70
2022-09-23T10:43:46.663Z,50.10
2022-09-23T10:46:37.815Z,49.20
2022-09-23T10:49:51.026Z,47.70
2022-09-23T10:52:41.902Z,47.70
2022-09-23T10:55:23.759Z,49.60
2022-09-23T10:58:08.637Z,51.20
2022-09-23T11:00:45.023Z,52.50
2022-09-23T11:03:45.909Z,53.70
2022-09-23T11:06:25.003Z,52.40
2022-09-23T11:09:10.432Z,51.40
2022-09-23T11:11:49.564Z,53.30
2022-09-23T11:14:45.508Z,51.90
2022-09-23T11:17:37.127Z,50.90
2022-09-23T11:20:28.356Z,50.20
2022-09-23T11:23:23.622Z,52.20
2022-09-23T11:25:59.293Z,52.10
2022-09-23T11:28:42.382Z,53.30
2022-09-23T11:31:23.550Z,52.20
2022-09-23T11:34:02.551Z,51.50
2022-09-23T11:36:36.533Z,52.00
2022-09-23T11:39:12.826Z,52.10
2022-09-23T11:41:43.794Z,52.60
2022-09-23T11:44:19.880Z,52.00
2022-09-23T11:46:53.572Z,54.00
2022-09-23T11:49:27.653Z,56.50
2022-09-23T11:52:03.899Z,57.10
2022-09-23T11:54:40.620Z,59.00
2022-09-23T11:57:14.119Z,62.10
2022-09-23T12:02:30.294Z,63.20
2022-09-23T12:05:03.507Z,66.50
2022-09-23T12:07:39.582Z,67.50
2022-09-23T12:10:11.781Z,67.20
2022-09-23T12:12:47.888Z,65.90
2022-09-23T12:15:27.954Z,69.80
2022-09-23T12:18:23.260Z,67.90
2022-09-23T12:21:45.712Z,66.60
2022-09-23T12:24:41.884Z,67.10
2022-09-23T12:27:24.126Z,68.00
2022-09-23T12:29:56.499Z,68.40
2022-09-23T12:32:25.041Z,66.40
2022-09-23T12:34:55.132Z,66.00
2022-09-23T12:37:28.877Z,67.50
2022-09-23T12:40:03.162Z,68.80
2022-09-23T12:42:32.480Z,70.10
2022-09-23T12:45:34.641Z,71.00
2022-09-23T12:48:04.292Z,68.70
2022-09-23T12:50:52.955Z,72.00
2022-09-23T12:54:08.781Z,73.40
2022-09-23T12:57:02.087Z,73.60
2022-09-23T12:59:55.601Z,72.80
2022-09-23T13:02:30.914Z,73.40
2022-09-23T13:05:28.052Z,74.10
2022-09-23T13:08:02.954Z,74.80
2022-09-23T13:10:33.702Z,70.90
2022-09-23T13:13:03.209Z,73.70
2022-09-23T13:15:35.532Z,73.60
2022-09-23T13:18:25.987Z,73.90
2022-09-23T13:20:56.841Z,74.00
2022-09-23T13:23:25.931Z,72.30
2022-09-23T13:25:56.841Z,72.90
2022-09-23T13:28:34.589Z,74.60
2022-09-23T13:31:07.388Z,74.20
2022-09-23T13:33:41.890Z,75.50
2022-09-23T13:36:14.794Z,74.30
2022-09-23T13:38:43.465Z,75.70
2022-09-23T13:41:16.195Z,73.60
2022-09-23T13:43:46.230Z,76.00
2022-09-23T13:46:18.884Z,78.10
2022-09-23T13:48:48.904Z,76.80
2022-09-23T13:51:22.820Z,78.10
2022-09-23T13:53:55.075Z,74.70
2022-09-23T13:56:24.880Z,77.00
2022-09-23T13:58:53.267Z,78.00
2022-09-23T14:01:32.566Z,76.30
2022-09-23T14:04:00.839Z,76.80
2022-09-23T14:06:31.040Z,77.30
2022-09-23T14:09:01.997Z,78.20
2022-09-23T14:11:33.043Z,79.90
2022-09-23T14:14:07.424Z,75.20
2022-09-23T14:16:41.026Z,78.60
2022-09-23T14:19:12.371Z,78.70
2022-09-23T14:21:41.284Z,80.60
2022-09-23T14:24:20.875Z,75.80
2022-09-23T14:26:51.221Z,80.70
2022-09-23T14:29:21.792Z,79.90
2022-09-23T14:32:02.967Z,79.20
2022-09-23T14:34:45.724Z,80.20
2022-09-23T14:37:49.759Z,80.10
2022-09-23T14:40:18.772Z,77.10
2022-09-23T14:42:49.846Z,77.50
2022-09-23T14:45:20.727Z,79.40
2022-09-23T14:47:52.599Z,77.10
2022-09-23T14:50:39.581Z,75.60
2022-09-23T14:53:31.829Z,75.80
2022-09-23T14:56:19.848Z,78.30
2022-09-23T14:58:55.318Z,79.60
2022-09-23T15:01:35.444Z,77.40
2022-09-23T15:04:16.852Z,78.30
2022-09-23T15:06:50.733Z,80.20
2022-09-23T15:09:23.571Z,79.10
2022-09-23T15:11:57.886Z,78.30
2022-09-23T15:14:40.665Z,79.10
2022-09-23T15:17:17.941Z,81.10
2022-09-23T15:19:52.457Z,83.60
2022-09-23T15:22:20.376Z,82.20
2022-09-23T15:24:48.277Z,82.50
2022-09-23T15:27:30.749Z,82.80
2022-09-23T15:30:14.919Z,81.10
2022-09-23T15:32:43.295Z,81.90
2022-09-23T15:35:16.291Z,82.20
2022-09-23T15:37:44.619Z,83.60
2022-09-23T15:40:20.708Z,81.60
2022-09-23T15:42:51.439Z,81.60
2022-09-23T15:45:21.936Z,82.60
2022-09-23T15:47:51.014Z,83.50
2022-09-23T15:50:20.556Z,83.50
2022-09-23T15:52:48.416Z,83.60
2022-09-23T15:55:19.509Z,82.90
2022-09-23T15:57:47.496Z,82.90
2022-09-23T16:00:16.698Z,84.30
2022-09-23T16:02:46.669Z,84.50
2022-09-23T16:05:22.591Z,84.80
2022-09-23T16:07:52.215Z,85.80
2022-09-23T16:10:22.743Z,86.40
2022-09-23T16:12:52.257Z,87.50
2022-09-23T16:15:22.407Z,88.00
2022-09-23T16:17:50.316Z,89.30
2022-09-23T16:20:19.830Z,89.90
2022-09-23T16:22:53.868Z,91.20
2022-09-23T16:25:22.582Z,89.30
2022-09-23T16:27:50.418Z,90.70
2022-09-23T16:30:18.309Z,91.20
2022-09-23T16:32:46.128Z,91.90
2022-09-23T16:35:15.059Z,92.40
2022-09-23T16:37:46.950Z,92.80
2022-09-23T16:40:16.485Z,93.10
2022-09-23T16:42:45.183Z,93.70
2022-09-23T16:45:13.682Z,93.80
2022-09-23T16:47:45.193Z,94.40
2022-09-23T16:50:13.872Z,95.00
2022-09-23T16:52:41.829Z,95.70
2022-09-23T16:55:12.965Z,96.10
2022-09-23T16:57:41.778Z,96.60
2022-09-23T17:00:31.238Z,97.30
2022-09-23T17:03:28.305Z,97.90
2022-09-23T17:05:56.178Z,98.60
2022-09-23T17:08:24.157Z,99.20
2022-09-23T17:10:59.086Z,99.90
2022-09-23T17:13:27.739Z,99.90
2022-09-23T17:15:55.796Z,99.90
2022-09-23T17:18:23.738Z,99.90
2022-09-23T17:20:59.487Z,99.90
2022-09-23T17:23:28.305Z,99.90
2022-09-23T17:25:57.470Z,99.90
2022-09-23T17:28:25.436Z,99.90
2022-09-23T17:30:58.574Z,99.90
2022-09-23T17:33:26.592Z,99.90
2022-09-23T17:35:54.706Z,99.90
2022-09-23T17:38:27.976Z,99.90
2022-09-23T17:41:01.046Z,99.90
2022-09-23T17:43:30.167Z,99.90
2022-09-23T17:46:06.531Z,99.90
2022-09-23T17:48:35.897Z,99.90
2022-09-23T17:51:05.862Z,99.90
2022-09-23T17:53:35.990Z,99.90
2022-09-23T17:56:07.089Z,99.90
2022-09-23T17:58:36.795Z,99.90
2022-09-23T18:01:05.525Z,99.90
2022-09-23T18:03:33.578Z,99.90
2022-09-23T18:06:09.909Z,99.90
2022-09-23T18:08:37.845Z,99.90
2022-09-23T18:11:14.690Z,99.90
2022-09-23T18:13:42.637Z,99.90
2022-09-23T18:16:10.535Z,99.90
2022-09-23T18:18:38.429Z,99.90
2022-09-23T18:21:07.548Z,99.90
2022-09-23T18:23:36.794Z,99.90
2022-09-23T18:26:05.518Z,99.90
2022-09-23T18:28:35.129Z,99.90
2022-09-23T18:31:03.018Z,99.90
2022-09-23T18:33:30.849Z,99.90
2022-09-23T18:36:01.087Z,99.90
2022-09-23T18:38:28.929Z,99.90
2022-09-23T18:40:58.650Z,99.90
2022-09-23T18:43:37.408Z,99.90
2022-09-23T18:46:12.710Z,99.90
2022-09-23T18:48:58.580Z,99.90
2022-09-23T18:51:29.013Z,99.90
2022-09-23T18:53:58.530Z,99.90
2022-09-23T18:56:29.639Z,99.90
2022-09-23T18:58:57.768Z,99.90
2022-09-23T19:01:27.264Z,99.90
2022-09-23T19:03:56.045Z,99.90
2022-09-23T19:06:25.200Z,99.90
2022-09-23T19:08:54.508Z,99.90
2022-09-23T19:11:23.775Z,99.90
2022-09-23T19:13:55.173Z,99.90
2022-09-23T19:16:24.048Z,99.90
2022-09-23T19:18:54.333Z,99.90
2022-09-23T19:21:23.546Z,99.90
2022-09-23T19:23:53.177Z,99.90
2022-09-23T19:26:23.133Z,99.90
2022-09-23T19:28:52.658Z,99.90
2022-09-23T19:31:23.194Z,99.90
2022-09-23T19:33:56.958Z,99.90
2022-09-23T19:36:31.407Z,99.90
2022-09-23T19:39:02.864Z,99.90
2022-09-23T19:41:33.334Z,99.90
2022-09-23T19:44:03.524Z,99.90
2022-09-23T19:46:32.325Z,99.90
2022-09-23T19:49:02.381Z,99.90
2022-09-23T19:51:30.676Z,99.90
2022-09-23T19:53:58.514Z,99.90
2022-09-23T19:56:26.503Z,99.90
2022-09-23T19:58:58.139Z,99.90
2022-09-23T20:01:27.223Z,99.90
2022-09-23T20:03:55.212Z,99.90
2022-09-23T20:06:24.561Z,99.90
2022-09-23T20:08:52.715Z,99.90
2022-09-23T20:11:26.194Z,99.90
2022-09-23T20:14:00.899Z,99.90
2022-09-23T20:16:31.977Z,99.90
2022-09-23T20:19:00.878Z,99.90
2022-09-23T20:21:30.909Z,99.90
2022-09-23T20:23:59.160Z,99.90
2022-09-23T20:26:44.734Z,99.90
2022-09-23T20:29:12.765Z,99.90
2022-09-23T20:31:41.492Z,99.90
2022-09-23T20:34:10.467Z,99.90
2022-09-23T20:36:41.365Z,99.90
2022-09-23T20:39:10.571Z,99.90
2022-09-23T20:41:39.360Z,99.90
2022-09-23T20:44:10.397Z,99.90
2022-09-23T20:46:38.722Z,99.90
2022-09-23T20:49:08.716Z,99.90
2022-09-23T20:51:36.846Z,99.90
2022-09-23T20:54:07.262Z,99.90
2022-09-23T20:56:35.190Z,99.90
2022-09-23T20:59:04.267Z,99.90
2022-09-23T21:01:34.238Z,99.90
2022-09-23T21:04:04.790Z,99.90
2022-09-23T21:06:34.502Z,99.90
2022-09-23T21:09:02.382Z,99.90
2022-09-23T21:11:32.198Z,99.90
2022-09-23T21:14:01.405Z,99.90
2022-09-23T21:16:29.973Z,99.90
2022-09-23T21:18:58.652Z,99.90
2022-09-23T21:21:26.948Z,99.90
2022-09-23T21:23:55.344Z,99.90
2022-09-23T21:26:27.288Z,99.90
2022-09-23T21:28:58.697Z,99.90
2022-09-23T21:31:28.521Z,99.90
2022-09-23T21:33:57.088Z,99.90
2022-09-23T21:36:26.293Z,99.90
2022-09-23T21:38:55.451Z,99.90
2022-09-23T21:41:23.670Z,99.90
2022-09-23T21:43:51.872Z,99.90
2022-09-23T21:46:22.269Z,99.90
2022-09-23T21:48:53.683Z,99.90
2022-09-23T21:51:23.166Z,99.90
2022-09-23T21:53:51.907Z,99.90
2022-09-23T21:56:21.463Z,99.90
2022-09-23T21:58:49.642Z,99.90
2022-09-23T22:01:19.155Z,99.90
2022-09-23T22:03:52.495Z,99.90
2022-09-23T22:06:22.465Z,99.90
2022-09-23T22:08:52.166Z,99.90
2022-09-23T22:11:41.752Z,99.90
2022-09-23T22:14:12.489Z,99.90
2022-09-23T22:16:41.576Z,99.90
2022-09-23T22:19:13.708Z,99.90
2022-09-23T22:21:43.279Z,99.90
2022-09-23T22:24:12.870Z,99.90
2022-09-23T22:26:42.624Z,99.90
2022-09-23T22:29:30.414Z,99.90
2022-09-23T22:32:16.645Z,99.90
2022-09-23T22:34:51.482Z,99.90
2022-09-23T22:37:23.139Z,99.90
2022-09-23T22:39:50.947Z,99.90
2022-09-23T22:42:21.147Z,99.90
2022-09-23T22:44:49.309Z,99.90
2022-09-23T22:47:18.545Z,99.90
2022-09-23T22:49:48.808Z,99.90
2022-09-23T22:52:21.087Z,99.90
2022-09-23T22:54:49.115Z,99.90
2022-09-23T22:57:16.993Z,99.90
2022-09-23T22:59:47.852Z,99.90
2022-09-23T23:02:16.491Z,99.90
2022-09-23T23:04:45.349Z,99.90
2022-09-23T23:07:15.932Z,99.90
2022-09-23T23:09:43.763Z,99.90
2022-09-23T23:12:11.545Z,99.90
2022-09-23T23:14:40.730Z,99.90
2022-09-23T23:17:08.530Z,99.90
2022-09-23T23:19:37.070Z,99.90
2022-09-23T23:22:05.189Z,99.90
2022-09-23T23:24:34.362Z,99.90
2022-09-23T23:27:02.434Z,99.90
2022-09-23T23:29:30.297Z,99.90
2022-09-23T23:31:58.158Z,99.90
2022-09-23T23:34:26.020Z,99.90
2022-09-23T23:36:55.746Z,99.90
2022-09-23T23:39:24.882Z,99.90
2022-09-23T23:41:56.080Z,99.90
2022-09-23T23:44:24.969Z,99.90
2022-09-23T23:46:53.249Z,99.90
2022-09-23T23:49:21.422Z,99.90
2022-09-23T23:51:49.278Z,99.90
2022-09-23T23:54:17.492Z,99.90
2022-09-23T23:56:45.374Z,99.90
2022-09-23T23:59:14.578Z,99.90
